Terminal Aerodrome Forecast
Issued by NWS

Home | Current Version | Previous Version | Text Only | Print | Product List | Glossary On
Versions: 1 2 3 4 5 6 7 8 9 10 11 12 13 14 15 16
000
FTUS42 TJSJ 011100
TAFJSJ
TAF
TJSJ 011131Z 0112/0212 09008KT P6SM VCSH FEW030 SCT100
     FM011400 08018G25KT P6SM VCSH FEW030
     FM012200 09010KT P6SM VCSH FEW030=

USA.gov is the U.S. government's official web portal to all federal, state and local government web resources and services.